Time;durP1;ratioP1;P1;durP2;ratioP2;P2;SDS_P1;SDS_P2;PMS_P1;PMS_P2;Temp;Humidity;BMP_temperature;BMP_pressure;BME280_temperature;BME280_humidity;BME280_pressure;Samples;Min_cycle;Max_cycle;Signal;HPM_P1;HPM_P2
2021/01/01 00:01:14;;;;;;;11.30;6.47;;;2.10;99.90;;;;;;4995217;28;20429;-69
2021/01/01 00:03:41;;;;;;;9.17;6.03;;;2.10;99.90;;;;;;4995383;28;20472;-69
2021/01/01 00:06:10;;;;;;;9.80;6.70;;;2.10;99.90;;;;;;4995402;28;20421;-69
2021/01/01 00:08:36;;;;;;;10.80;6.80;;;2.00;99.90;;;;;;4995351;28;20494;-70
2021/01/01 00:11:03;;;;;;;11.87;7.73;;;2.00;99.90;;;;;;4995153;28;20450;-70
2021/01/01 00:13:29;;;;;;;10.03;7.47;;;1.90;99.90;;;;;;4994849;28;20464;-69
2021/01/01 00:15:55;;;;;;;11.13;7.27;;;1.90;99.90;;;;;;4995183;28;20468;-70
2021/01/01 00:18:22;;;;;;;9.23;7.10;;;1.80;99.90;;;;;;4995153;28;20498;-69
2021/01/01 00:20:48;;;;;;;10.30;7.30;;;1.80;99.90;;;;;;4995126;28;20779;-70
2021/01/01 00:23:14;;;;;;;11.13;7.20;;;1.90;99.90;;;;;;4995019;28;20518;-69
2021/01/01 00:25:40;;;;;;;9.50;7.73;;;1.90;99.90;;;;;;4995052;28;20503;-69
2021/01/01 00:28:07;;;;;;;9.17;6.97;;;1.90;99.90;;;;;;4994991;28;20465;-69
2021/01/01 00:30:33;;;;;;;10.87;7.30;;;1.90;99.90;;;;;;4994966;28;20436;-69
2021/01/01 00:32:59;;;;;;;8.90;6.53;;;1.90;99.90;;;;;;4994781;28;20468;-69
2021/01/01 00:35:26;;;;;;;10.17;6.33;;;1.80;99.90;;;;;;4994494;28;20891;-69
2021/01/01 00:37:52;;;;;;;8.70;6.50;;;1.90;99.90;;;;;;4994848;28;20491;-70
2021/01/01 00:40:19;;;;;;;8.60;6.57;;;1.80;99.90;;;;;;4994792;28;20440;-69
2021/01/01 00:42:45;;;;;;;10.60;6.67;;;1.80;99.90;;;;;;4995240;28;20471;-69
2021/01/01 00:45:11;;;;;;;12.20;6.60;;;1.80;99.90;;;;;;4994647;28;20440;-70
2021/01/01 00:47:38;;;;;;;11.57;7.17;;;1.80;99.90;;;;;;4994645;28;20449;-69
2021/01/01 00:50:06;;;;;;;7.83;6.60;;;1.70;99.90;;;;;;4994555;28;20479;-69
2021/01/01 00:52:36;;;;;;;12.00;7.47;;;1.70;99.90;;;;;;4994145;28;20817;-69
2021/01/01 00:55:02;;;;;;;12.87;8.67;;;1.80;99.90;;;;;;4994373;28;20472;-64
2021/01/01 00:57:28;;;;;;;10.97;8.07;;;1.70;99.90;;;;;;4994263;28;20440;-64
2021/01/01 00:59:54;;;;;;;10.97;8.27;;;1.70;99.90;;;;;;4994118;28;20448;-64
2021/01/01 01:02:21;;;;;;;9.40;7.30;;;1.70;99.90;;;;;;4994178;28;21003;-64
2021/01/01 01:04:47;;;;;;;11.30;7.20;;;1.70;99.90;;;;;;4994048;28;20948;-65
2021/01/01 01:07:13;;;;;;;10.30;6.60;;;1.70;99.90;;;;;;4994300;28;20448;-64
2021/01/01 01:09:40;;;;;;;10.63;6.63;;;1.70;99.90;;;;;;4994160;28;20488;-64
2021/01/01 01:12:06;;;;;;;10.63;7.17;;;1.70;99.90;;;;;;4994184;28;20436;-64
2021/01/01 01:14:32;;;;;;;11.07;7.03;;;1.80;99.90;;;;;;4994205;28;20600;-64
2021/01/01 01:16:59;;;;;;;9.83;7.20;;;1.90;99.90;;;;;;4994103;28;20476;-64
2021/01/01 01:19:25;;;;;;;10.17;7.37;;;1.90;99.90;;;;;;4993810;28;20459;-63
2021/01/01 01:21:51;;;;;;;11.17;7.07;;;2.00;99.90;;;;;;4994643;28;20434;-64
2021/01/01 01:24:18;;;;;;;14.43;8.03;;;2.00;99.90;;;;;;4994053;28;20456;-64
2021/01/01 01:26:45;;;;;;;12.00;7.30;;;2.00;99.90;;;;;;4994104;28;20419;-63
2021/01/01 01:29:11;;;;;;;13.23;7.70;;;2.10;99.90;;;;;;4994035;28;20444;-64
2021/01/01 01:31:38;;;;;;;9.53;7.03;;;2.00;99.90;;;;;;4994012;28;20506;-64
2021/01/01 01:34:05;;;;;;;11.67;8.00;;;2.10;99.90;;;;;;4993905;28;20468;-63
2021/01/01 01:36:31;;;;;;;10.80;7.13;;;2.10;99.90;;;;;;4993848;28;20484;-65
2021/01/01 01:38:57;;;;;;;10.33;7.23;;;2.10;99.90;;;;;;4993638;28;20444;-64
2021/01/01 01:41:23;;;;;;;7.90;6.30;;;2.20;99.90;;;;;;4993924;28;20820;-64
2021/01/01 01:43:50;;;;;;;9.93;6.53;;;2.10;99.90;;;;;;4993873;28;20464;-64
2021/01/01 01:46:17;;;;;;;11.70;7.50;;;2.00;99.90;;;;;;4993884;28;20495;-64
2021/01/01 01:48:45;;;;;;;9.57;7.10;;;2.00;99.90;;;;;;4993822;28;20448;-64
2021/01/01 01:51:12;;;;;;;12.27;6.90;;;2.00;99.90;;;;;;4994060;28;20448;-64
2021/01/01 01:53:42;;;;;;;8.43;6.20;;;2.00;99.90;;;;;;4994538;28;20483;-64
2021/01/01 01:56:08;;;;;;;10.73;6.93;;;2.10;99.90;;;;;;4993431;28;20874;-64
2021/01/01 01:58:35;;;;;;;10.43;7.70;;;2.10;99.90;;;;;;4993463;28;20829;-64
2021/01/01 02:01:03;;;;;;;11.37;7.80;;;2.00;99.90;;;;;;4993759;28;20444;-64
2021/01/01 02:03:30;;;;;;;11.87;8.03;;;1.90;99.90;;;;;;4993627;28;20522;-64
2021/01/01 02:05:57;;;;;;;11.67;7.80;;;2.00;99.90;;;;;;4993548;28;20963;-64
2021/01/01 02:08:23;;;;;;;13.97;7.97;;;1.90;99.90;;;;;;4994723;28;20448;-63
2021/01/01 02:10:52;;;;;;;12.47;8.37;;;1.90;99.90;;;;;;4997099;28;20560;-63
2021/01/01 02:13:19;;;;;;;14.83;8.90;;;2.00;99.90;;;;;;4997360;28;20530;-64
2021/01/01 02:15:45;;;;;;;10.27;8.43;;;2.00;99.90;;;;;;4998123;28;20480;-64
2021/01/01 02:18:13;;;;;;;15.47;9.00;;;2.10;99.90;;;;;;4997403;28;20440;-64
2021/01/01 02:20:39;;;;;;;13.70;8.67;;;2.00;99.90;;;;;;4997339;28;20448;-64
2021/01/01 02:23:06;;;;;;;13.40;8.90;;;2.00;99.90;;;;;;4997223;28;20453;-63
2021/01/01 02:25:32;;;;;;;16.00;10.60;;;2.00;99.90;;;;;;4997208;28;20445;-64
2021/01/01 02:27:59;;;;;;;14.80;8.87;;;2.00;99.90;;;;;;4997202;28;20452;-64
2021/01/01 02:30:25;;;;;;;14.17;9.43;;;2.00;99.90;;;;;;4997168;28;20444;-64
2021/01/01 02:32:51;;;;;;;16.00;9.93;;;2.00;99.90;;;;;;4996699;28;20882;-66
2021/01/01 02:35:17;;;;;;;18.20;11.33;;;2.00;99.90;;;;;;4996933;28;20491;-64
2021/01/01 02:37:43;;;;;;;16.43;9.67;;;2.10;99.90;;;;;;4996953;28;20455;-64
2021/01/01 02:40:11;;;;;;;17.20;10.47;;;2.10;99.90;;;;;;4988953;28;20876;-65
2021/01/01 02:42:38;;;;;;;15.33;9.87;;;2.10;99.90;;;;;;4996850;28;20472;-64
2021/01/01 02:45:05;;;;;;;17.80;10.17;;;2.10;99.90;;;;;;4996883;28;20448;-63
2021/01/01 02:47:31;;;;;;;17.00;10.40;;;2.10;99.90;;;;;;4996822;28;20515;-64
2021/01/01 02:49:57;;;;;;;13.07;9.10;;;2.10;99.90;;;;;;4997042;28;20460;-64
2021/01/01 02:52:24;;;;;;;16.77;9.47;;;2.20;99.90;;;;;;4996697;28;20518;-64
2021/01/01 02:54:50;;;;;;;19.30;10.30;;;2.20;99.90;;;;;;4996700;28;20445;-65
2021/01/01 02:57:17;;;;;;;17.23;9.40;;;2.20;99.90;;;;;;4996573;28;20483;-64
2021/01/01 02:59:43;;;;;;;17.30;10.43;;;2.20;99.90;;;;;;4996322;28;20851;-65
2021/01/01 03:02:09;;;;;;;16.97;10.43;;;2.20;99.90;;;;;;4996491;28;20460;-64
2021/01/01 03:04:35;;;;;;;16.87;11.03;;;2.20;99.90;;;;;;4996541;28;20498;-64
2021/01/01 03:07:02;;;;;;;21.13;10.97;;;2.20;99.90;;;;;;4996512;28;20419;-64
2021/01/01 03:09:28;;;;;;;17.57;10.10;;;2.10;99.90;;;;;;4996569;28;20448;-63
2021/01/01 03:11:54;;;;;;;14.30;9.90;;;2.10;99.90;;;;;;4996333;28;20436;-65
2021/01/01 03:14:21;;;;;;;21.90;10.93;;;2.10;99.90;;;;;;4996041;28;20452;-65
2021/01/01 03:16:47;;;;;;;17.33;10.10;;;2.10;99.90;;;;;;4996236;28;20484;-65
2021/01/01 03:19:13;;;;;;;17.87;10.07;;;2.10;99.90;;;;;;4995757;28;20448;-64
2021/01/01 03:21:39;;;;;;;16.70;10.50;;;2.20;99.90;;;;;;4995568;28;20455;-64
2021/01/01 03:24:06;;;;;;;15.87;9.50;;;2.20;99.90;;;;;;4996102;28;20531;-64
2021/01/01 03:26:33;;;;;;;16.33;10.27;;;2.20;99.90;;;;;;4996139;28;20444;-65
2021/01/01 03:28:59;;;;;;;22.30;10.93;;;2.20;99.90;;;;;;4996136;28;20449;-64
2021/01/01 03:31:26;;;;;;;14.63;9.90;;;2.20;99.90;;;;;;4995756;28;20463;-66
2021/01/01 03:33:52;;;;;;;17.33;10.30;;;2.20;99.90;;;;;;4995938;28;20469;-64
2021/01/01 03:36:18;;;;;;;13.30;9.73;;;2.20;99.90;;;;;;4995880;28;20484;-63
2021/01/01 03:38:46;;;;;;;15.03;9.80;;;2.20;99.90;;;;;;4996338;28;20468;-65
2021/01/01 03:41:12;;;;;;;14.00;9.00;;;2.30;99.90;;;;;;4987831;28;20937;-64
2021/01/01 03:43:38;;;;;;;17.07;9.60;;;2.20;99.90;;;;;;4995437;28;20467;-64
2021/01/01 03:46:05;;;;;;;17.30;10.30;;;2.30;99.90;;;;;;4995799;28;20440;-69
2021/01/01 03:48:32;;;;;;;18.17;9.70;;;2.20;99.90;;;;;;4995738;28;20452;-69
2021/01/01 03:50:58;;;;;;;16.30;9.70;;;2.20;99.90;;;;;;4995984;28;20448;-69
2021/01/01 03:53:24;;;;;;;15.80;10.80;;;2.20;99.90;;;;;;4995274;28;20468;-69
2021/01/01 03:55:50;;;;;;;16.37;9.33;;;2.10;99.90;;;;;;4995210;28;21014;-69
2021/01/01 03:58:16;;;;;;;18.97;10.40;;;2.10;99.90;;;;;;4995536;28;20448;-70
2021/01/01 04:00:43;;;;;;;15.07;10.47;;;2.10;99.90;;;;;;4995554;28;20452;-69
2021/01/01 04:03:09;;;;;;;20.90;11.87;;;2.10;99.90;;;;;;4995056;28;20881;-69
2021/01/01 04:05:36;;;;;;;17.87;11.20;;;2.10;99.90;;;;;;4995397;28;20448;-65
2021/01/01 04:08:02;;;;;;;15.27;9.87;;;2.10;99.90;;;;;;4995328;28;20444;-64
2021/01/01 04:10:28;;;;;;;19.37;10.70;;;2.10;99.90;;;;;;4994951;28;20492;-64
2021/01/01 04:12:54;;;;;;;14.20;9.30;;;2.10;99.90;;;;;;4995196;28;20468;-64
2021/01/01 04:15:20;;;;;;;14.83;10.57;;;2.00;99.90;;;;;;4995135;28;20441;-64
2021/01/01 04:17:47;;;;;;;16.03;10.00;;;2.00;99.90;;;;;;4995190;28;20529;-65
2021/01/01 04:20:13;;;;;;;17.10;9.90;;;2.00;99.90;;;;;;4995142;28;20426;-65
2021/01/01 04:22:40;;;;;;;15.30;10.00;;;2.00;99.90;;;;;;4995013;28;20468;-64
2021/01/01 04:25:07;;;;;;;17.70;9.80;;;2.00;99.90;;;;;;4994724;28;20983;-66
2021/01/01 04:27:34;;;;;;;17.83;10.47;;;2.00;99.90;;;;;;4994952;28;20448;-65
2021/01/01 04:30:00;;;;;;;15.60;10.10;;;2.00;99.90;;;;;;4994850;28;20948;-69
2021/01/01 04:32:26;;;;;;;15.13;9.43;;;2.00;99.90;;;;;;4994445;28;20551;-69
2021/01/01 04:34:52;;;;;;;17.77;10.07;;;2.00;99.90;;;;;;4994871;28;20426;-66
2021/01/01 04:37:18;;;;;;;14.80;9.50;;;2.00;99.90;;;;;;4994743;28;20488;-65
2021/01/01 04:39:46;;;;;;;22.50;11.30;;;2.00;99.90;;;;;;4994471;28;20806;-64
2021/01/01 04:42:13;;;;;;;21.30;10.10;;;2.00;99.90;;;;;;4994430;28;20956;-64
2021/01/01 04:44:40;;;;;;;16.30;10.17;;;2.10;99.90;;;;;;4994685;28;20444;-65
2021/01/01 04:47:07;;;;;;;20.27;10.40;;;2.20;99.90;;;;;;4994581;28;20949;-69
2021/01/01 04:49:34;;;;;;;16.77;9.73;;;2.10;99.90;;;;;;4994307;28;20952;-69
2021/01/01 04:52:02;;;;;;;17.50;9.40;;;2.10;99.90;;;;;;4994495;28;20441;-64
2021/01/01 04:54:33;;;;;;;18.53;10.10;;;2.10;99.90;;;;;;4994523;28;20448;-64
2021/01/01 04:57:01;;;;;;;22.07;10.83;;;2.10;99.90;;;;;;4994168;28;20471;-64
2021/01/01 04:59:27;;;;;;;18.17;10.47;;;2.20;99.90;;;;;;4994117;28;21013;-64
2021/01/01 05:01:54;;;;;;;16.43;10.03;;;2.20;99.90;;;;;;4994293;28;20448;-64
2021/01/01 05:04:20;;;;;;;14.90;9.63;;;2.20;99.90;;;;;;4994343;28;20460;-64
2021/01/01 05:06:46;;;;;;;15.33;9.50;;;2.20;99.90;;;;;;4994320;28;20423;-64
2021/01/01 05:09:13;;;;;;;16.90;10.23;;;2.20;99.90;;;;;;4993802;28;20940;-65
2021/01/01 05:11:40;;;;;;;17.30;9.67;;;2.20;99.90;;;;;;4995337;28;20510;-64
2021/01/01 05:14:08;;;;;;;15.20;9.20;;;2.30;99.90;;;;;;4994214;28;20492;-64
2021/01/01 05:16:35;;;;;;;20.30;10.60;;;2.30;99.90;;;;;;4994124;28;20507;-64
2021/01/01 05:19:09;;;;;;;15.53;9.00;;;2.30;99.90;;;;;;4994174;28;20444;-64
2021/01/01 05:21:35;;;;;;;18.10;10.37;;;2.30;99.90;;;;;;4993959;28;20821;-65
2021/01/01 05:24:05;;;;;;;15.57;10.00;;;2.30;99.90;;;;;;4994054;28;20472;-65
2021/01/01 05:26:31;;;;;;;16.33;9.50;;;2.30;99.90;;;;;;4993761;28;20446;-70
2021/01/01 05:29:04;;;;;;;16.57;10.50;;;2.30;99.90;;;;;;4994061;28;20459;-70
2021/01/01 05:31:32;;;;;;;17.03;10.07;;;2.40;99.90;;;;;;4994566;28;20437;-68
2021/01/01 05:34:00;;;;;;;18.77;10.33;;;2.40;99.90;;;;;;4994001;28;20472;-69
2021/01/01 05:36:32;;;;;;;17.60;10.20;;;2.40;99.90;;;;;;4993911;28;20477;-64
2021/01/01 05:38:59;;;;;;;17.27;10.30;;;2.40;99.90;;;;;;4993997;28;20455;-68
2021/01/01 05:41:30;;;;;;;13.10;8.47;;;2.30;99.90;;;;;;4993689;28;20515;-69
2021/01/01 05:44:25;;;;;;;16.67;10.00;;;2.30;99.90;;;;;;4995839;28;20476;-69
2021/01/01 05:47:00;;;;;;;18.30;10.70;;;2.40;99.90;;;;;;4998008;28;20475;-69
2021/01/01 05:49:28;;;;;;;15.27;10.27;;;2.40;99.90;;;;;;4998034;28;20794;-69
2021/01/01 05:52:13;;;;;;;15.80;9.90;;;2.40;99.90;;;;;;4997779;28;20441;-69
2021/01/01 05:54:41;;;;;;;13.43;9.20;;;2.40;99.90;;;;;;4997530;28;20990;-69
2021/01/01 05:57:09;;;;;;;16.10;10.27;;;2.40;99.90;;;;;;4997682;28;20480;-69
2021/01/01 05:59:38;;;;;;;17.57;10.07;;;2.30;99.90;;;;;;4997738;28;20419;-69
2021/01/01 06:02:06;;;;;;;17.77;10.50;;;2.30;99.90;;;;;;4997640;28;20440;-69
2021/01/01 06:04:33;;;;;;;16.80;10.77;;;2.30;99.90;;;;;;4997606;28;20444;-69
2021/01/01 06:07:05;;;;;;;18.10;10.97;;;2.30;99.90;;;;;;4997572;28;20451;-69
2021/01/01 06:09:32;;;;;;;18.97;10.50;;;2.40;99.90;;;;;;4997377;28;20480;-69
2021/01/01 06:12:07;;;;;;;18.53;10.60;;;2.40;99.90;;;;;;4997424;28;20503;-69
2021/01/01 06:14:38;;;;;;;14.17;9.73;;;2.30;99.90;;;;;;4997523;28;20439;-64
2021/01/01 06:17:18;;;;;;;19.87;11.83;;;2.30;99.90;;;;;;4997410;28;20464;-65
2021/01/01 06:19:46;;;;;;;20.03;10.83;;;2.20;99.90;;;;;;4997406;28;20437;-64
2021/01/01 06:22:14;;;;;;;16.27;10.43;;;2.20;99.90;;;;;;4997263;28;20864;-65
2021/01/01 06:24:44;;;;;;;17.90;11.03;;;2.20;99.90;;;;;;4996990;28;20822;-64
2021/01/01 06:27:12;;;;;;;15.83;10.83;;;2.10;99.90;;;;;;4996893;28;20929;-64
2021/01/01 06:29:42;;;;;;;16.40;10.07;;;2.10;99.90;;;;;;4997179;28;20531;-64
2021/01/01 06:32:09;;;;;;;14.77;9.90;;;2.10;99.90;;;;;;4997083;28;20448;-65
2021/01/01 06:34:36;;;;;;;16.97;10.07;;;2.10;99.90;;;;;;4996808;28;20956;-65
2021/01/01 06:37:02;;;;;;;16.60;9.70;;;2.10;99.90;;;;;;4997007;28;20515;-66
2021/01/01 06:39:40;;;;;;;13.90;8.57;;;2.20;99.90;;;;;;4996713;28;20948;-65
2021/01/01 06:42:07;;;;;;;15.83;9.37;;;2.10;99.90;;;;;;4996891;28;20452;-64
2021/01/01 06:44:35;;;;;;;14.80;9.37;;;2.20;99.90;;;;;;4996581;28;20824;-64
2021/01/01 06:47:02;;;;;;;15.40;9.27;;;2.20;99.90;;;;;;4996912;28;20548;-64
2021/01/01 06:49:36;;;;;;;15.83;9.67;;;2.20;99.90;;;;;;4996801;28;20503;-63
2021/01/01 06:52:10;;;;;;;17.40;10.10;;;2.10;99.90;;;;;;4996991;28;20433;-65
2021/01/01 06:54:55;;;;;;;16.70;9.97;;;2.00;99.90;;;;;;4996493;28;20419;-69
2021/01/01 06:57:23;;;;;;;15.53;9.00;;;2.00;99.90;;;;;;4996666;28;20564;-69
2021/01/01 06:59:49;;;;;;;17.60;9.60;;;2.00;99.90;;;;;;4996610;28;20561;-68
2021/01/01 07:02:29;;;;;;;15.47;9.00;;;2.00;99.90;;;;;;4996257;28;21019;-69
2021/01/01 07:04:57;;;;;;;18.37;9.30;;;2.00;99.90;;;;;;4996654;28;20799;-69
2021/01/01 07:07:43;;;;;;;13.40;9.03;;;2.10;99.90;;;;;;4996565;28;20436;-64
2021/01/01 07:10:13;;;;;;;16.40;8.57;;;2.10;99.90;;;;;;4996300;28;20607;-63
2021/01/01 07:12:39;;;;;;;14.90;9.60;;;2.00;99.90;;;;;;4996367;28;20887;-69
2021/01/01 07:15:31;;;;;;;12.93;8.13;;;2.10;99.90;;;;;;4996360;28;20532;-70
2021/01/01 07:17:58;;;;;;;11.83;7.00;;;2.10;99.90;;;;;;4996087;28;20963;-69
2021/01/01 07:20:25;;;;;;;13.20;7.90;;;2.00;99.90;;;;;;4996174;28;20460;-69
2021/01/01 07:22:57;;;;;;;12.73;8.20;;;2.10;99.90;;;;;;4996161;28;20465;-69
2021/01/01 07:25:38;;;;;;;13.93;8.33;;;2.10;99.90;;;;;;4996235;28;20439;-69
2021/01/01 07:28:07;;;;;;;12.60;7.47;;;2.00;99.90;;;;;;4996215;28;20411;-69
2021/01/01 07:30:34;;;;;;;11.40;7.30;;;2.00;99.90;;;;;;4996091;28;20887;-69
2021/01/01 07:33:01;;;;;;;11.70;7.40;;;2.00;99.90;;;;;;4995984;28;20468;-64
2021/01/01 07:35:29;;;;;;;10.30;6.90;;;2.00;99.90;;;;;;4995934;28;20929;-65
2021/01/01 07:37:56;;;;;;;9.10;6.60;;;2.10;99.90;;;;;;4995982;28;20866;-65
2021/01/01 07:40:22;;;;;;;15.50;7.97;;;2.20;99.90;;;;;;4995930;28;20514;-68
2021/01/01 07:42:50;;;;;;;11.67;6.60;;;2.20;99.90;;;;;;4995778;28;20847;-69
2021/01/01 07:45:18;;;;;;;9.80;6.37;;;2.20;99.90;;;;;;4995838;28;20448;-65
2021/01/01 07:47:45;;;;;;;11.07;6.90;;;2.20;99.90;;;;;;4995743;28;20447;-65
2021/01/01 07:50:15;;;;;;;11.90;6.60;;;2.20;99.90;;;;;;4995941;28;20441;-64
2021/01/01 07:52:43;;;;;;;11.47;7.07;;;2.20;99.90;;;;;;4995936;28;20464;-64
2021/01/01 07:55:11;;;;;;;11.70;7.30;;;2.20;99.90;;;;;;4995650;28;20452;-65
2021/01/01 07:57:38;;;;;;;12.47;7.50;;;2.20;99.90;;;;;;4995504;28;20471;-63
2021/01/01 08:00:06;;;;;;;7.40;5.70;;;2.20;99.90;;;;;;4995532;28;20502;-64
2021/01/01 08:02:33;;;;;;;10.60;6.73;;;2.20;99.90;;;;;;4995399;28;20509;-69
2021/01/01 08:05:02;;;;;;;9.43;5.73;;;2.20;99.90;;;;;;4995709;28;20426;-70
2021/01/01 08:07:28;;;;;;;9.07;6.07;;;2.20;99.90;;;;;;4994690;28;20445;-69
2021/01/01 08:09:56;;;;;;;6.43;5.17;;;2.20;99.90;;;;;;4995669;28;20511;-69
2021/01/01 08:12:22;;;;;;;8.33;5.17;;;2.30;99.90;;;;;;4994924;28;20930;-69
2021/01/01 08:14:49;;;;;;;10.63;5.63;;;2.30;99.90;;;;;;4995241;28;20448;-69
2021/01/01 08:17:20;;;;;;;7.37;5.13;;;2.30;99.90;;;;;;4995130;28;20488;-70
2021/01/01 08:19:46;;;;;;;9.20;5.60;;;2.40;99.90;;;;;;4995153;28;20448;-70
2021/01/01 08:22:14;;;;;;;8.03;6.13;;;2.50;99.90;;;;;;4995039;28;20471;-69
2021/01/01 08:24:44;;;;;;;8.93;5.30;;;2.50;99.90;;;;;;4995099;28;20433;-69
2021/01/01 08:27:12;;;;;;;7.53;5.83;;;2.50;99.90;;;;;;4987006;28;20447;-69
2021/01/01 08:29:39;;;;;;;7.10;5.17;;;2.60;99.90;;;;;;4994689;28;20437;-65
2021/01/01 08:32:06;;;;;;;8.50;5.00;;;2.60;99.90;;;;;;4994908;28;20433;-64
2021/01/01 08:34:32;;;;;;;7.73;4.73;;;2.50;99.90;;;;;;4994913;28;20442;-64
2021/01/01 08:36:58;;;;;;;8.50;5.13;;;2.60;99.90;;;;;;4994780;28;20468;-65
2021/01/01 08:39:25;;;;;;;7.93;4.47;;;2.60;99.90;;;;;;4994827;28;20448;-64
2021/01/01 08:41:52;;;;;;;6.33;4.73;;;2.60;99.90;;;;;;4994777;28;20429;-64
2021/01/01 08:44:24;;;;;;;4.83;4.33;;;2.60;99.90;;;;;;4994918;28;20468;-64
2021/01/01 08:46:58;;;;;;;7.30;5.10;;;2.70;99.90;;;;;;4994397;28;20443;-65
2021/01/01 08:49:24;;;;;;;7.87;5.13;;;2.80;99.90;;;;;;4994700;28;20527;-64
2021/01/01 08:51:50;;;;;;;10.00;4.90;;;2.70;99.90;;;;;;4994624;28;20441;-64
2021/01/01 08:54:24;;;;;;;6.90;4.70;;;2.70;99.90;;;;;;4994248;28;20979;-65
2021/01/01 08:56:57;;;;;;;6.80;4.47;;;2.70;99.90;;;;;;4994473;28;20432;-64
2021/01/01 08:59:25;;;;;;;5.90;4.67;;;2.80;99.90;;;;;;4994502;28;20525;-64
2021/01/01 09:01:51;;;;;;;8.03;5.50;;;2.80;99.90;;;;;;4994427;28;20823;-65
2021/01/01 09:04:18;;;;;;;6.73;4.27;;;2.90;99.90;;;;;;4994287;28;20472;-64
2021/01/01 09:06:53;;;;;;;7.00;4.30;;;2.90;99.90;;;;;;4994060;28;20414;-64
2021/01/01 09:09:26;;;;;;;5.67;4.00;;;2.90;99.90;;;;;;4994160;28;20780;-69
2021/01/01 09:11:52;;;;;;;5.10;4.20;;;2.90;99.90;;;;;;4994285;28;20432;-70
2021/01/01 09:14:19;;;;;;;5.70;4.00;;;3.00;99.90;;;;;;4994172;28;20480;-69
2021/01/01 09:16:46;;;;;;;4.13;3.50;;;3.10;99.90;;;;;;4994160;28;20476;-69
2021/01/01 09:19:13;;;;;;;3.73;3.37;;;3.20;99.90;;;;;;4994197;28;20448;-69
2021/01/01 09:21:39;;;;;;;4.77;2.80;;;3.20;99.90;;;;;;4994153;28;20452;-69
2021/01/01 09:24:06;;;;;;;4.20;2.93;;;3.30;99.90;;;;;;4993962;28;20480;-69
2021/01/01 09:26:32;;;;;;;5.53;2.30;;;3.40;99.90;;;;;;4994040;28;20444;-69
2021/01/01 09:29:01;;;;;;;2.20;2.00;;;3.40;99.90;;;;;;4994033;28;20422;-64
2021/01/01 09:31:27;;;;;;;3.80;2.63;;;3.50;99.90;;;;;;4994035;28;20480;-65
2021/01/01 09:33:59;;;;;;;2.37;1.90;;;3.50;99.90;;;;;;4993930;28;20472;-66
2021/01/01 09:36:25;;;;;;;2.90;2.27;;;3.60;99.90;;;;;;4993929;28;20455;-69
2021/01/01 09:38:51;;;;;;;2.00;1.80;;;3.70;99.90;;;;;;4993934;28;20448;-69
2021/01/01 09:41:18;;;;;;;2.33;1.80;;;3.70;99.90;;;;;;4993824;28;20464;-69
2021/01/01 09:43:44;;;;;;;1.63;1.40;;;3.80;99.90;;;;;;4993850;28;20476;-69
2021/01/01 09:46:10;;;;;;;1.83;1.50;;;4.00;99.90;;;;;;4985814;28;20440;-64
2021/01/01 09:48:37;;;;;;;2.37;2.20;;;4.00;99.90;;;;;;4993850;28;20448;-64
2021/01/01 09:51:04;;;;;;;1.77;1.63;;;3.90;99.90;;;;;;4993805;28;20448;-63
2021/01/01 09:53:30;;;;;;;1.80;1.40;;;4.00;99.90;;;;;;4993744;28;20468;-64
2021/01/01 09:55:57;;;;;;;1.30;1.13;;;4.10;99.90;;;;;;4993742;28;20445;-65
2021/01/01 09:58:23;;;;;;;1.97;1.80;;;4.30;99.90;;;;;;4993769;28;20441;-65
2021/01/01 10:00:49;;;;;;;1.60;1.47;;;4.40;99.90;;;;;;4993455;28;20445;-65
2021/01/01 10:03:15;;;;;;;2.00;1.50;;;4.70;99.90;;;;;;4993620;28;20848;-65
2021/01/01 10:05:41;;;;;;;1.73;1.50;;;5.00;99.90;;;;;;4993750;28;20495;-65
2021/01/01 10:08:08;;;;;;;1.40;1.30;;;5.20;99.90;;;;;;4993743;28;20439;-65
2021/01/01 10:10:34;;;;;;;2.10;1.63;;;5.20;99.90;;;;;;4993384;28;20516;-65
2021/01/01 10:13:01;;;;;;;2.17;1.57;;;5.40;99.90;;;;;;4993577;28;20519;-65
2021/01/01 10:15:27;;;;;;;2.40;1.87;;;5.30;99.90;;;;;;4993663;28;20428;-65
2021/01/01 10:17:53;;;;;;;1.90;1.80;;;5.30;99.90;;;;;;4993548;28;20479;-65
2021/01/01 10:20:19;;;;;;;2.80;1.70;;;5.20;99.90;;;;;;4993572;28;20507;-65
2021/01/01 10:22:45;;;;;;;1.93;1.67;;;5.10;99.90;;;;;;4993504;28;20472;-65
2021/01/01 10:25:13;;;;;;;1.83;1.73;;;5.10;99.90;;;;;;4993552;28;20444;-65
2021/01/01 10:27:39;;;;;;;1.83;1.73;;;5.10;99.90;;;;;;4993220;28;20978;-65
2021/01/01 10:30:06;;;;;;;1.87;1.77;;;5.30;99.90;;;;;;4995537;28;20451;-65
2021/01/01 10:32:33;;;;;;;2.70;1.67;;;5.40;99.90;;;;;;4997334;28;20499;-65
2021/01/01 10:34:59;;;;;;;1.40;1.30;;;5.40;99.90;;;;;;4997162;28;20477;-65
2021/01/01 10:37:25;;;;;;;1.53;1.23;;;5.40;99.90;;;;;;4997011;28;20480;-65
2021/01/01 10:39:51;;;;;;;1.53;1.43;;;5.40;99.90;;;;;;4997327;28;20433;-65
2021/01/01 10:42:18;;;;;;;1.50;1.40;;;5.40;99.90;;;;;;4996667;28;21039;-65
2021/01/01 10:44:44;;;;;;;1.60;1.50;;;5.30;99.90;;;;;;4997018;28;20436;-65
2021/01/01 10:47:11;;;;;;;2.30;1.80;;;5.30;99.90;;;;;;4996950;28;20429;-65
2021/01/01 10:49:37;;;;;;;1.90;1.60;;;5.30;99.90;;;;;;4996898;28;20519;-66
2021/01/01 10:52:04;;;;;;;1.93;1.83;;;5.20;99.90;;;;;;4996800;28;20440;-65
2021/01/01 10:54:30;;;;;;;2.90;2.70;;;5.20;99.90;;;;;;4996796;28;20433;-65
2021/01/01 10:56:57;;;;;;;2.00;1.60;;;5.20;99.90;;;;;;4996933;28;20468;-65
2021/01/01 10:59:24;;;;;;;2.10;2.00;;;5.00;99.90;;;;;;4996688;28;20483;-65
2021/01/01 11:01:54;;;;;;;2.43;2.17;;;5.00;99.90;;;;;;4996394;28;20437;-65
2021/01/01 11:04:21;;;;;;;1.23;1.20;;;5.00;99.90;;;;;;4996641;28;20516;-65
2021/01/01 11:06:47;;;;;;;1.60;1.50;;;5.00;99.90;;;;;;4996589;28;20448;-65
2021/01/01 11:09:13;;;;;;;1.87;1.67;;;4.90;99.90;;;;;;4996335;28;20452;-66
2021/01/01 11:11:39;;;;;;;1.53;1.30;;;4.80;99.90;;;;;;4996423;28;20845;-65
2021/01/01 11:14:09;;;;;;;2.30;2.00;;;4.80;99.90;;;;;;4996113;28;20991;-65
2021/01/01 12:20:19;;;;;;;3.37;2.10;;;5.70;99.90;;;;;;4995357;28;20790;-65
2021/01/01 12:22:56;;;;;;;2.37;2.00;;;5.70;99.90;;;;;;4995049;28;20483;-65
2021/01/01 12:25:23;;;;;;;2.23;2.03;;;5.70;99.90;;;;;;4995074;28;20437;-65
2021/01/01 12:27:50;;;;;;;2.30;2.00;;;5.80;99.90;;;;;;4994748;28;20443;-65
2021/01/01 12:30:18;;;;;;;3.47;2.00;;;5.80;99.90;;;;;;4995071;28;20768;-65
2021/01/01 12:32:45;;;;;;;1.93;1.70;;;5.80;99.90;;;;;;4994538;28;21019;-65
2021/01/01 12:35:12;;;;;;;2.33;2.13;;;5.80;99.90;;;;;;4994944;28;20439;-65
2021/01/01 12:37:39;;;;;;;3.00;2.70;;;5.80;99.90;;;;;;4995148;28;20479;-65
2021/01/01 12:40:08;;;;;;;3.07;2.10;;;5.70;99.90;;;;;;4994623;28;20436;-68
2021/01/01 12:42:34;;;;;;;2.70;2.50;;;5.80;99.90;;;;;;4994684;28;20487;-68
2021/01/01 12:45:01;;;;;;;1.80;1.70;;;5.80;99.90;;;;;;4994460;28;20935;-65
2021/01/01 12:47:27;;;;;;;1.53;1.43;;;5.80;99.90;;;;;;4994772;28;20432;-68
2021/01/01 12:49:53;;;;;;;1.93;1.83;;;5.80;99.90;;;;;;4994408;28;20435;-68
2021/01/01 12:52:20;;;;;;;2.47;2.00;;;5.70;99.90;;;;;;4994019;28;20980;-69
2021/01/01 12:54:46;;;;;;;2.90;2.00;;;5.50;99.90;;;;;;4994659;28;20488;-69
2021/01/01 12:57:13;;;;;;;3.07;1.93;;;5.40;99.90;;;;;;4994446;28;20465;-69
2021/01/01 12:59:39;;;;;;;3.37;2.10;;;5.40;99.90;;;;;;4994523;28;20433;-69
2021/01/01 13:02:05;;;;;;;2.20;2.00;;;5.30;99.90;;;;;;4994435;28;20436;-69
2021/01/01 13:04:32;;;;;;;3.40;2.23;;;5.20;99.90;;;;;;4994469;28;20800;-64
2021/01/01 13:06:58;;;;;;;3.73;2.20;;;5.20;99.90;;;;;;4994454;28;20436;-68
2021/01/01 13:09:24;;;;;;;2.50;2.30;;;5.20;99.90;;;;;;4994198;28;20448;-65
2021/01/01 13:11:50;;;;;;;1.93;1.73;;;5.20;99.90;;;;;;4994347;28;20440;-65
2021/01/01 13:14:17;;;;;;;2.10;1.80;;;5.30;99.90;;;;;;4993950;28;21000;-65
2021/01/01 13:16:45;;;;;;;1.80;1.70;;;5.30;99.90;;;;;;4994822;28;20472;-65
2021/01/01 13:19:12;;;;;;;2.23;1.80;;;5.30;99.90;;;;;;4986420;28;20797;-64
2021/01/01 13:21:41;;;;;;;1.80;1.60;;;5.30;99.90;;;;;;4994225;28;20432;-68
2021/01/01 13:24:07;;;;;;;3.03;2.30;;;5.30;99.90;;;;;;4994163;28;20471;-69
2021/01/01 13:26:34;;;;;;;2.40;2.00;;;5.30;99.90;;;;;;4993844;28;20897;-69
2021/01/01 13:29:03;;;;;;;1.93;1.77;;;5.40;99.90;;;;;;4994104;28;20509;-69
2021/01/01 13:31:35;;;;;;;1.87;1.70;;;5.40;99.90;;;;;;4993785;28;20441;-69
2021/01/01 13:34:02;;;;;;;2.50;2.00;;;5.50;99.90;;;;;;4994015;28;20468;-65
2021/01/01 13:36:28;;;;;;;1.97;1.87;;;5.40;99.90;;;;;;4993967;28;20475;-65
2021/01/01 13:38:54;;;;;;;3.80;2.27;;;5.40;99.90;;;;;;4994018;28;20528;-66
2021/01/01 13:41:20;;;;;;;2.03;1.70;;;5.40;99.90;;;;;;4993660;28;20963;-64
2021/01/01 13:43:46;;;;;;;2.17;2.00;;;5.50;99.90;;;;;;4993902;28;20477;-64
2021/01/01 13:46:20;;;;;;;1.40;1.30;;;5.50;99.90;;;;;;4994509;28;20436;-69
2021/01/01 13:48:47;;;;;;;1.80;1.70;;;5.60;99.90;;;;;;4993638;28;20904;-69
2021/01/01 13:51:13;;;;;;;2.33;1.90;;;5.70;99.90;;;;;;4993885;28;20448;-65
2021/01/01 13:53:39;;;;;;;3.20;2.60;;;5.70;99.90;;;;;;4993728;28;20476;-64